sensor_id;sensor_type;location;lat;lon;timestamp;temperature;humidity
64549;DHT22;49838;51.798;10.954;2022-09-27T00:00:14;18.30;33.80
64549;DHT22;49838;51.798;10.954;2022-09-27T00:02:43;18.30;33.90
64549;DHT22;49838;51.798;10.954;2022-09-27T00:05:10;18.30;34.00
64549;DHT22;49838;51.798;10.954;2022-09-27T00:07:38;18.30;34.00
64549;DHT22;49838;51.798;10.954;2022-09-27T00:10:06;18.30;33.90
64549;DHT22;49838;51.798;10.954;2022-09-27T00:12:34;18.40;33.90
64549;DHT22;49838;51.798;10.954;2022-09-27T00:15:01;18.30;33.80
64549;DHT22;49838;51.798;10.954;2022-09-27T00:17:29;18.40;33.80
64549;DHT22;49838;51.798;10.954;2022-09-27T00:19:58;18.40;33.80
64549;DHT22;49838;51.798;10.954;2022-09-27T00:22:26;18.40;34.00
64549;DHT22;49838;51.798;10.954;2022-09-27T00:24:54;18.40;34.10
64549;DHT22;49838;51.798;10.954;2022-09-27T00:27:21;18.30;34.00
64549;DHT22;49838;51.798;10.954;2022-09-27T00:29:48;18.20;34.50
64549;DHT22;49838;51.798;10.954;2022-09-27T00:32:16;18.20;34.50
64549;DHT22;49838;51.798;10.954;2022-09-27T00:34:43;18.10;34.40
64549;DHT22;49838;51.798;10.954;2022-09-27T00:37:12;18.10;34.30
64549;DHT22;49838;51.798;10.954;2022-09-27T00:39:39;18.10;34.30
64549;DHT22;49838;51.798;10.954;2022-09-27T00:42:08;18.10;34.60
64549;DHT22;49838;51.798;10.954;2022-09-27T00:44:58;18.10;34.70
64549;DHT22;49838;51.798;10.954;2022-09-27T00:47:40;18.10;34.80
64549;DHT22;49838;51.798;10.954;2022-09-27T00:50:14;18.00;34.60
64549;DHT22;49838;51.798;10.954;2022-09-27T00:52:53;18.00;34.60
64549;DHT22;49838;51.798;10.954;2022-09-27T00:55:36;18.00;34.70
64549;DHT22;49838;51.798;10.954;2022-09-27T00:58:09;17.90;34.70
64549;DHT22;49838;51.798;10.954;2022-09-27T01:00:41;17.90;35.20
64549;DHT22;49838;51.798;10.954;2022-09-27T01:03:11;17.90;35.10
64549;DHT22;49838;51.798;10.954;2022-09-27T01:05:45;17.90;35.00
64549;DHT22;49838;51.798;10.954;2022-09-27T01:08:14;17.90;34.90
64549;DHT22;49838;51.798;10.954;2022-09-27T01:10:45;17.90;34.80
64549;DHT22;49838;51.798;10.954;2022-09-27T01:13:19;18.00;34.80
64549;DHT22;49838;51.798;10.954;2022-09-27T01:15:55;18.00;34.80
64549;DHT22;49838;51.798;10.954;2022-09-27T01:18:29;18.00;34.80
64549;DHT22;49838;51.798;10.954;2022-09-27T01:24:07;18.00;35.00
64549;DHT22;49838;51.798;10.954;2022-09-27T01:30:15;18.10;34.90
64549;DHT22;49838;51.798;10.954;2022-09-27T01:32:47;18.10;35.00
64549;DHT22;49838;51.798;10.954;2022-09-27T01:35:21;18.10;35.10
64549;DHT22;49838;51.798;10.954;2022-09-27T01:37:57;18.10;35.10
64549;DHT22;49838;51.798;10.954;2022-09-27T01:40:38;18.10;35.10
64549;DHT22;49838;51.798;10.954;2022-09-27T01:43:13;18.10;35.00
64549;DHT22;49838;51.798;10.954;2022-09-27T01:45:46;18.20;35.00
64549;DHT22;49838;51.798;10.954;2022-09-27T01:48:19;18.10;35.10
64549;DHT22;49838;51.798;10.954;2022-09-27T01:50:49;18.10;35.40
64549;DHT22;49838;51.798;10.954;2022-09-27T01:53:22;18.10;35.50
64549;DHT22;49838;51.798;10.954;2022-09-27T01:55:53;18.10;35.70
64549;DHT22;49838;51.798;10.954;2022-09-27T01:58:23;18.00;35.70
64549;DHT22;49838;51.798;10.954;2022-09-27T02:00:56;18.00;35.90
64549;DHT22;49838;51.798;10.954;2022-09-27T02:03:26;18.00;35.70
64549;DHT22;49838;51.798;10.954;2022-09-27T02:05:58;18.10;35.50
64549;DHT22;49838;51.798;10.954;2022-09-27T02:08:29;18.10;35.40
64549;DHT22;49838;51.798;10.954;2022-09-27T02:11:03;18.10;35.40
64549;DHT22;49838;51.798;10.954;2022-09-27T02:13:37;18.10;35.20
64549;DHT22;49838;51.798;10.954;2022-09-27T02:16:15;18.20;35.10
64549;DHT22;49838;51.798;10.954;2022-09-27T02:18:50;18.20;35.00
64549;DHT22;49838;51.798;10.954;2022-09-27T02:21:24;18.30;35.00
64549;DHT22;49838;51.798;10.954;2022-09-27T02:23:58;18.30;34.90
64549;DHT22;49838;51.798;10.954;2022-09-27T02:26:30;18.40;34.90
64549;DHT22;49838;51.798;10.954;2022-09-27T02:29:04;18.40;34.90
64549;DHT22;49838;51.798;10.954;2022-09-27T02:31:36;18.40;34.90
64549;DHT22;49838;51.798;10.954;2022-09-27T02:34:05;18.40;35.00
64549;DHT22;49838;51.798;10.954;2022-09-27T02:36:35;18.30;35.50
64549;DHT22;49838;51.798;10.954;2022-09-27T02:39:03;18.30;35.60
64549;DHT22;49838;51.798;10.954;2022-09-27T02:41:31;18.20;35.30
64549;DHT22;49838;51.798;10.954;2022-09-27T02:43:58;18.20;35.30
64549;DHT22;49838;51.798;10.954;2022-09-27T02:46:32;18.20;35.30
64549;DHT22;49838;51.798;10.954;2022-09-27T02:49:17;18.20;35.30
64549;DHT22;49838;51.798;10.954;2022-09-27T02:51:57;18.20;35.20
64549;DHT22;49838;51.798;10.954;2022-09-27T02:54:39;18.20;35.20
64549;DHT22;49838;51.798;10.954;2022-09-27T02:57:20;18.20;35.20
64549;DHT22;49838;51.798;10.954;2022-09-27T02:59:59;18.10;35.00
64549;DHT22;49838;51.798;10.954;2022-09-27T03:02:37;18.10;35.00
64549;DHT22;49838;51.798;10.954;2022-09-27T03:05:17;18.10;35.00
64549;DHT22;49838;51.798;10.954;2022-09-27T03:07:48;18.10;35.10
64549;DHT22;49838;51.798;10.954;2022-09-27T03:10:16;18.10;35.10
64549;DHT22;49838;51.798;10.954;2022-09-27T03:12:44;18.10;35.00
64549;DHT22;49838;51.798;10.954;2022-09-27T03:15:12;18.10;35.00
64549;DHT22;49838;51.798;10.954;2022-09-27T03:17:41;18.10;35.00
64549;DHT22;49838;51.798;10.954;2022-09-27T03:20:08;18.10;35.00
64549;DHT22;49838;51.798;10.954;2022-09-27T03:22:35;18.10;35.10
64549;DHT22;49838;51.798;10.954;2022-09-27T03:25:03;18.10;35.10
64549;DHT22;49838;51.798;10.954;2022-09-27T03:27:31;18.10;35.10
64549;DHT22;49838;51.798;10.954;2022-09-27T03:29:58;18.10;35.00
64549;DHT22;49838;51.798;10.954;2022-09-27T03:32:25;18.10;35.00
64549;DHT22;49838;51.798;10.954;2022-09-27T03:34:54;18.20;35.00
64549;DHT22;49838;51.798;10.954;2022-09-27T03:37:21;18.20;34.90
64549;DHT22;49838;51.798;10.954;2022-09-27T03:39:51;18.20;34.90
64549;DHT22;49838;51.798;10.954;2022-09-27T03:42:18;18.20;34.90
64549;DHT22;49838;51.798;10.954;2022-09-27T03:44:45;18.20;34.90
64549;DHT22;49838;51.798;10.954;2022-09-27T03:47:13;18.30;34.90
64549;DHT22;49838;51.798;10.954;2022-09-27T03:49:40;18.30;34.90
64549;DHT22;49838;51.798;10.954;2022-09-27T03:52:08;18.30;34.90
64549;DHT22;49838;51.798;10.954;2022-09-27T03:54:35;18.30;34.90
64549;DHT22;49838;51.798;10.954;2022-09-27T03:57:03;18.40;34.90
64549;DHT22;49838;51.798;10.954;2022-09-27T03:59:30;18.40;34.90
64549;DHT22;49838;51.798;10.954;2022-09-27T04:01:57;18.50;34.90
64549;DHT22;49838;51.798;10.954;2022-09-27T04:04:25;18.50;34.90
64549;DHT22;49838;51.798;10.954;2022-09-27T04:06:52;18.50;34.80
64549;DHT22;49838;51.798;10.954;2022-09-27T04:09:20;18.50;34.80
64549;DHT22;49838;51.798;10.954;2022-09-27T04:11:48;18.50;34.80
64549;DHT22;49838;51.798;10.954;2022-09-27T04:14:15;18.60;34.90
64549;DHT22;49838;51.798;10.954;2022-09-27T04:16:42;18.60;34.80
64549;DHT22;49838;51.798;10.954;2022-09-27T04:19:09;18.60;34.80
64549;DHT22;49838;51.798;10.954;2022-09-27T04:21:37;18.60;34.80
64549;DHT22;49838;51.798;10.954;2022-09-27T04:24:04;18.50;34.80
64549;DHT22;49838;51.798;10.954;2022-09-27T04:26:33;18.60;34.90
64549;DHT22;49838;51.798;10.954;2022-09-27T04:29:00;18.50;34.80
64549;DHT22;49838;51.798;10.954;2022-09-27T04:31:27;18.50;35.50
64549;DHT22;49838;51.798;10.954;2022-09-27T04:33:55;18.50;34.80
64549;DHT22;49838;51.798;10.954;2022-09-27T04:36:23;18.50;34.90
64549;DHT22;49838;51.798;10.954;2022-09-27T04:38:54;18.40;34.90
64549;DHT22;49838;51.798;10.954;2022-09-27T04:41:23;18.40;35.00
64549;DHT22;49838;51.798;10.954;2022-09-27T04:43:54;18.30;35.10
64549;DHT22;49838;51.798;10.954;2022-09-27T04:46:21;18.30;35.10
64549;DHT22;49838;51.798;10.954;2022-09-27T04:48:49;18.30;35.10
64549;DHT22;49838;51.798;10.954;2022-09-27T04:51:17;18.30;35.00
64549;DHT22;49838;51.798;10.954;2022-09-27T04:53:45;18.30;34.90
64549;DHT22;49838;51.798;10.954;2022-09-27T04:56:13;18.30;34.90
64549;DHT22;49838;51.798;10.954;2022-09-27T04:58:41;18.30;34.90
64549;DHT22;49838;51.798;10.954;2022-09-27T05:01:09;18.30;35.00
64549;DHT22;49838;51.798;10.954;2022-09-27T05:03:37;18.30;35.00
64549;DHT22;49838;51.798;10.954;2022-09-27T05:06:04;18.30;35.00
64549;DHT22;49838;51.798;10.954;2022-09-27T05:08:31;18.30;35.00
64549;DHT22;49838;51.798;10.954;2022-09-27T05:10:59;18.30;35.00
64549;DHT22;49838;51.798;10.954;2022-09-27T05:13:26;18.30;35.00
64549;DHT22;49838;51.798;10.954;2022-09-27T05:15:53;18.30;35.00
64549;DHT22;49838;51.798;10.954;2022-09-27T05:18:22;18.30;34.90
64549;DHT22;49838;51.798;10.954;2022-09-27T05:20:49;18.40;34.90
64549;DHT22;49838;51.798;10.954;2022-09-27T05:23:18;18.40;34.80
64549;DHT22;49838;51.798;10.954;2022-09-27T05:25:45;18.50;34.90
64549;DHT22;49838;51.798;10.954;2022-09-27T05:28:12;18.50;34.80
64549;DHT22;49838;51.798;10.954;2022-09-27T05:30:40;18.50;34.80
64549;DHT22;49838;51.798;10.954;2022-09-27T05:33:07;18.50;34.80
64549;DHT22;49838;51.798;10.954;2022-09-27T05:35:36;18.50;34.90
64549;DHT22;49838;51.798;10.954;2022-09-27T05:38:07;18.50;34.80
64549;DHT22;49838;51.798;10.954;2022-09-27T05:40:34;18.50;34.80
64549;DHT22;49838;51.798;10.954;2022-09-27T05:43:02;18.50;34.80
64549;DHT22;49838;51.798;10.954;2022-09-27T05:45:29;18.50;34.80
64549;DHT22;49838;51.798;10.954;2022-09-27T05:47:57;18.50;34.80
64549;DHT22;49838;51.798;10.954;2022-09-27T05:50:25;18.50;34.90
64549;DHT22;49838;51.798;10.954;2022-09-27T05:52:54;18.50;34.90
64549;DHT22;49838;51.798;10.954;2022-09-27T05:55:22;18.50;34.90
64549;DHT22;49838;51.798;10.954;2022-09-27T05:57:53;18.60;35.00
64549;DHT22;49838;51.798;10.954;2022-09-27T06:00:21;18.60;35.00
64549;DHT22;49838;51.798;10.954;2022-09-27T06:02:54;18.70;35.00
64549;DHT22;49838;51.798;10.954;2022-09-27T06:05:22;18.80;35.10
64549;DHT22;49838;51.798;10.954;2022-09-27T06:07:50;18.80;35.20
64549;DHT22;49838;51.798;10.954;2022-09-27T06:10:19;18.80;35.40
64549;DHT22;49838;51.798;10.954;2022-09-27T06:12:46;18.80;35.30
64549;DHT22;49838;51.798;10.954;2022-09-27T06:15:15;18.90;35.40
64549;DHT22;49838;51.798;10.954;2022-09-27T06:17:42;18.90;35.50
64549;DHT22;49838;51.798;10.954;2022-09-27T06:20:09;18.90;35.50
64549;DHT22;49838;51.798;10.954;2022-09-27T06:22:37;18.90;35.50
64549;DHT22;49838;51.798;10.954;2022-09-27T06:25:04;18.90;35.40
64549;DHT22;49838;51.798;10.954;2022-09-27T06:27:34;19.00;35.40
64549;DHT22;49838;51.798;10.954;2022-09-27T06:30:01;19.00;35.40
64549;DHT22;49838;51.798;10.954;2022-09-27T06:32:29;19.10;35.40
64549;DHT22;49838;51.798;10.954;2022-09-27T06:34:56;19.10;35.30
64549;DHT22;49838;51.798;10.954;2022-09-27T06:37:24;19.00;35.30
64549;DHT22;49838;51.798;10.954;2022-09-27T06:39:52;19.00;35.40
64549;DHT22;49838;51.798;10.954;2022-09-27T06:42:20;18.90;35.50
64549;DHT22;49838;51.798;10.954;2022-09-27T06:44:51;18.90;35.50
64549;DHT22;49838;51.798;10.954;2022-09-27T06:47:19;18.80;35.60
64549;DHT22;49838;51.798;10.954;2022-09-27T06:49:46;18.70;35.50
64549;DHT22;49838;51.798;10.954;2022-09-27T06:52:14;18.70;35.60
64549;DHT22;49838;51.798;10.954;2022-09-27T06:54:41;18.60;35.70
64549;DHT22;49838;51.798;10.954;2022-09-27T06:57:08;18.50;35.90
64549;DHT22;49838;51.798;10.954;2022-09-27T06:59:57;18.50;35.80
64549;DHT22;49838;51.798;10.954;2022-09-27T07:02:42;18.30;35.80
64549;DHT22;49838;51.798;10.954;2022-09-27T07:05:12;18.20;36.00
64549;DHT22;49838;51.798;10.954;2022-09-27T07:07:39;18.10;36.20
64549;DHT22;49838;51.798;10.954;2022-09-27T07:10:07;18.10;36.10
64549;DHT22;49838;51.798;10.954;2022-09-27T07:12:35;18.10;36.30
64549;DHT22;49838;51.798;10.954;2022-09-27T07:15:04;18.10;36.20
64549;DHT22;49838;51.798;10.954;2022-09-27T07:17:32;18.10;36.20
64549;DHT22;49838;51.798;10.954;2022-09-27T07:20:00;18.10;36.20
64549;DHT22;49838;51.798;10.954;2022-09-27T07:22:28;18.10;36.30
64549;DHT22;49838;51.798;10.954;2022-09-27T07:24:55;18.10;36.30
64549;DHT22;49838;51.798;10.954;2022-09-27T07:27:23;18.10;36.20
64549;DHT22;49838;51.798;10.954;2022-09-27T07:29:51;18.20;36.40
64549;DHT22;49838;51.798;10.954;2022-09-27T07:32:20;18.20;36.50
64549;DHT22;49838;51.798;10.954;2022-09-27T07:34:47;18.30;36.40
64549;DHT22;49838;51.798;10.954;2022-09-27T07:37:14;18.30;36.40
64549;DHT22;49838;51.798;10.954;2022-09-27T07:39:42;18.30;36.50
64549;DHT22;49838;51.798;10.954;2022-09-27T07:42:10;18.30;36.50
64549;DHT22;49838;51.798;10.954;2022-09-27T07:44:38;18.30;36.40
64549;DHT22;49838;51.798;10.954;2022-09-27T07:47:05;18.30;36.50
64549;DHT22;49838;51.798;10.954;2022-09-27T07:49:34;18.40;36.60
64549;DHT22;49838;51.798;10.954;2022-09-27T07:52:01;18.40;36.60
64549;DHT22;49838;51.798;10.954;2022-09-27T07:54:29;18.40;36.50
64549;DHT22;49838;51.798;10.954;2022-09-27T07:56:56;18.50;36.50
64549;DHT22;49838;51.798;10.954;2022-09-27T07:59:23;18.50;36.40
64549;DHT22;49838;51.798;10.954;2022-09-27T08:01:52;18.60;36.40
64549;DHT22;49838;51.798;10.954;2022-09-27T08:04:20;18.60;36.40
64549;DHT22;49838;51.798;10.954;2022-09-27T08:06:49;18.70;36.30
64549;DHT22;49838;51.798;10.954;2022-09-27T08:09:16;18.80;36.50
64549;DHT22;49838;51.798;10.954;2022-09-27T08:11:44;18.80;36.30
64549;DHT22;49838;51.798;10.954;2022-09-27T08:14:12;18.90;36.50
64549;DHT22;49838;51.798;10.954;2022-09-27T08:16:39;18.90;36.40
64549;DHT22;49838;51.798;10.954;2022-09-27T08:19:07;19.00;36.40
64549;DHT22;49838;51.798;10.954;2022-09-27T08:21:35;19.10;36.50
64549;DHT22;49838;51.798;10.954;2022-09-27T08:24:04;19.20;36.40
64549;DHT22;49838;51.798;10.954;2022-09-27T08:26:32;19.20;36.50
64549;DHT22;49838;51.798;10.954;2022-09-27T08:28:59;19.30;36.50
64549;DHT22;49838;51.798;10.954;2022-09-27T08:31:26;19.50;36.50
64549;DHT22;49838;51.798;10.954;2022-09-27T08:33:54;19.60;36.40
64549;DHT22;49838;51.798;10.954;2022-09-27T08:36:21;19.70;36.50
64549;DHT22;49838;51.798;10.954;2022-09-27T08:38:49;19.80;36.50
64549;DHT22;49838;51.798;10.954;2022-09-27T08:41:21;19.90;36.50
64549;DHT22;49838;51.798;10.954;2022-09-27T08:43:58;20.20;36.60
64549;DHT22;49838;51.798;10.954;2022-09-27T08:46:36;20.40;36.60
64549;DHT22;49838;51.798;10.954;2022-09-27T08:49:15;20.60;36.60
64549;DHT22;49838;51.798;10.954;2022-09-27T08:51:49;20.70;36.50
64549;DHT22;49838;51.798;10.954;2022-09-27T08:54:20;20.90;36.70
64549;DHT22;49838;51.798;10.954;2022-09-27T08:56:51;21.10;36.70
64549;DHT22;49838;51.798;10.954;2022-09-27T08:59:19;21.20;36.70
64549;DHT22;49838;51.798;10.954;2022-09-27T09:01:52;21.20;36.70
64549;DHT22;49838;51.798;10.954;2022-09-27T09:04:23;21.30;36.70
64549;DHT22;49838;51.798;10.954;2022-09-27T09:06:56;21.30;36.70
64549;DHT22;49838;51.798;10.954;2022-09-27T09:09:34;21.20;36.80
64549;DHT22;49838;51.798;10.954;2022-09-27T09:12:12;21.10;36.70
64549;DHT22;49838;51.798;10.954;2022-09-27T09:15:17;21.00;36.70
64549;DHT22;49838;51.798;10.954;2022-09-27T09:18:02;20.90;36.70
64549;DHT22;49838;51.798;10.954;2022-09-27T09:20:53;20.90;36.80
64549;DHT22;49838;51.798;10.954;2022-09-27T09:23:38;20.90;36.70
64549;DHT22;49838;51.798;10.954;2022-09-27T09:26:17;20.90;36.80
64549;DHT22;49838;51.798;10.954;2022-09-27T09:28:57;20.80;36.70
64549;DHT22;49838;51.798;10.954;2022-09-27T09:31:37;20.80;36.80
64549;DHT22;49838;51.798;10.954;2022-09-27T09:34:09;20.80;36.80
64549;DHT22;49838;51.798;10.954;2022-09-27T09:36:43;20.90;37.00
64549;DHT22;49838;51.798;10.954;2022-09-27T09:39:15;20.90;36.80
64549;DHT22;49838;51.798;10.954;2022-09-27T09:41:50;20.90;36.90
64549;DHT22;49838;51.798;10.954;2022-09-27T09:44:30;21.10;37.00
64549;DHT22;49838;51.798;10.954;2022-09-27T09:47:09;21.20;37.10
64549;DHT22;49838;51.798;10.954;2022-09-27T09:49:53;21.30;37.00
64549;DHT22;49838;51.798;10.954;2022-09-27T09:52:28;21.50;37.00
64549;DHT22;49838;51.798;10.954;2022-09-27T09:55:06;21.70;37.00
64549;DHT22;49838;51.798;10.954;2022-09-27T09:57:46;21.90;37.00
64549;DHT22;49838;51.798;10.954;2022-09-27T10:00:23;22.20;37.10
64549;DHT22;49838;51.798;10.954;2022-09-27T10:02:51;22.50;37.30
64549;DHT22;49838;51.798;10.954;2022-09-27T10:05:20;22.90;37.60
64549;DHT22;49838;51.798;10.954;2022-09-27T10:07:50;23.20;37.60
64549;DHT22;49838;51.798;10.954;2022-09-27T10:10:19;23.60;37.70
64549;DHT22;49838;51.798;10.954;2022-09-27T10:12:47;24.10;38.00
64549;DHT22;49838;51.798;10.954;2022-09-27T10:15:16;24.70;38.60
64549;DHT22;49838;51.798;10.954;2022-09-27T10:17:47;25.40;39.10
64549;DHT22;49838;51.798;10.954;2022-09-27T10:20:21;26.20;39.00
64549;DHT22;49838;51.798;10.954;2022-09-27T10:22:53;26.70;36.60
64549;DHT22;49838;51.798;10.954;2022-09-27T10:25:31;26.70;35.50
64549;DHT22;49838;51.798;10.954;2022-09-27T10:30:58;26.60;34.70
64549;DHT22;49838;51.798;10.954;2022-09-27T10:33:29;26.70;35.00
64549;DHT22;49838;51.798;10.954;2022-09-27T10:35:58;27.00;34.60
64549;DHT22;49838;51.798;10.954;2022-09-27T10:38:27;27.60;35.50
64549;DHT22;49838;51.798;10.954;2022-09-27T10:40:56;28.20;36.10
64549;DHT22;49838;51.798;10.954;2022-09-27T10:43:26;29.00;37.00
64549;DHT22;49838;51.798;10.954;2022-09-27T10:46:02;29.40;35.10
64549;DHT22;49838;51.798;10.954;2022-09-27T10:48:37;29.50;34.00
64549;DHT22;49838;51.798;10.954;2022-09-27T10:51:07;29.50;32.60
64549;DHT22;49838;51.798;10.954;2022-09-27T10:53:49;29.50;32.20
64549;DHT22;49838;51.798;10.954;2022-09-27T10:56:19;29.50;32.20
64549;DHT22;49838;51.798;10.954;2022-09-27T10:58:49;29.50;32.10
64549;DHT22;49838;51.798;10.954;2022-09-27T11:01:17;29.20;31.80
64549;DHT22;49838;51.798;10.954;2022-09-27T11:03:47;28.90;31.40
64549;DHT22;49838;51.798;10.954;2022-09-27T11:06:17;28.50;31.70
64549;DHT22;49838;51.798;10.954;2022-09-27T11:08:46;28.00;30.80
64549;DHT22;49838;51.798;10.954;2022-09-27T11:11:15;27.50;30.90
64549;DHT22;49838;51.798;10.954;2022-09-27T11:13:59;27.10;31.00
64549;DHT22;49838;51.798;10.954;2022-09-27T11:16:33;26.70;30.70
64549;DHT22;49838;51.798;10.954;2022-09-27T11:19:15;26.30;30.90
64549;DHT22;49838;51.798;10.954;2022-09-27T11:21:56;26.30;31.20
64549;DHT22;49838;51.798;10.954;2022-09-27T11:24:35;26.40;31.40
64549;DHT22;49838;51.798;10.954;2022-09-27T11:27:17;26.30;31.10
64549;DHT22;49838;51.798;10.954;2022-09-27T11:30:01;26.10;31.10
64549;DHT22;49838;51.798;10.954;2022-09-27T11:32:35;25.90;31.00
64549;DHT22;49838;51.798;10.954;2022-09-27T11:35:18;25.80;31.10
64549;DHT22;49838;51.798;10.954;2022-09-27T11:37:59;25.50;31.00
64549;DHT22;49838;51.798;10.954;2022-09-27T11:40:40;25.30;31.10
64549;DHT22;49838;51.798;10.954;2022-09-27T11:43:21;25.20;30.90
64549;DHT22;49838;51.798;10.954;2022-09-27T11:46:00;25.10;31.10
64549;DHT22;49838;51.798;10.954;2022-09-27T11:48:43;25.10;31.40
64549;DHT22;49838;51.798;10.954;2022-09-27T11:51:24;25.10;31.30
64549;DHT22;49838;51.798;10.954;2022-09-27T11:54:04;25.00;31.10
64549;DHT22;49838;51.798;10.954;2022-09-27T11:56:47;24.80;31.90
64549;DHT22;49838;51.798;10.954;2022-09-27T11:59:27;24.70;31.10
64549;DHT22;49838;51.798;10.954;2022-09-27T12:02:17;24.50;30.60
64549;DHT22;49838;51.798;10.954;2022-09-27T12:04:59;24.20;30.80
64549;DHT22;49838;51.798;10.954;2022-09-27T12:07:47;24.10;30.80
64549;DHT22;49838;51.798;10.954;2022-09-27T12:10:19;24.00;30.90
64549;DHT22;49838;51.798;10.954;2022-09-27T12:12:49;24.00;31.00
64549;DHT22;49838;51.798;10.954;2022-09-27T12:15:19;24.10;31.30
64549;DHT22;49838;51.798;10.954;2022-09-27T12:17:49;24.10;31.00
64549;DHT22;49838;51.798;10.954;2022-09-27T12:20:20;24.20;31.10
64549;DHT22;49838;51.798;10.954;2022-09-27T12:22:54;24.30;31.10
64549;DHT22;49838;51.798;10.954;2022-09-27T12:25:23;24.40;31.10
64549;DHT22;49838;51.798;10.954;2022-09-27T12:27:57;24.30;30.70
64549;DHT22;49838;51.798;10.954;2022-09-27T12:30:30;24.20;30.60
64549;DHT22;49838;51.798;10.954;2022-09-27T12:33:03;24.00;30.60
64549;DHT22;49838;51.798;10.954;2022-09-27T12:35:39;23.90;30.70
64549;DHT22;49838;51.798;10.954;2022-09-27T12:38:14;23.70;30.70
64549;DHT22;49838;51.798;10.954;2022-09-27T12:40:46;23.70;30.70
64549;DHT22;49838;51.798;10.954;2022-09-27T12:43:17;23.50;30.80
64549;DHT22;49838;51.798;10.954;2022-09-27T12:45:48;23.30;30.80
64549;DHT22;49838;51.798;10.954;2022-09-27T12:48:22;23.10;30.90
64549;DHT22;49838;51.798;10.954;2022-09-27T12:51:04;23.00;31.00
64549;DHT22;49838;51.798;10.954;2022-09-27T12:53:39;22.90;31.00
64549;DHT22;49838;51.798;10.954;2022-09-27T12:56:22;22.90;31.10
64549;DHT22;49838;51.798;10.954;2022-09-27T12:59:07;22.90;31.20
64549;DHT22;49838;51.798;10.954;2022-09-27T13:01:50;22.90;31.10
64549;DHT22;49838;51.798;10.954;2022-09-27T13:04:33;23.10;31.00
64549;DHT22;49838;51.798;10.954;2022-09-27T13:07:15;23.10;30.90
64549;DHT22;49838;51.798;10.954;2022-09-27T13:10:02;23.10;30.70
64549;DHT22;49838;51.798;10.954;2022-09-27T13:12:40;23.20;30.80
64549;DHT22;49838;51.798;10.954;2022-09-27T13:15:15;23.20;30.70
64549;DHT22;49838;51.798;10.954;2022-09-27T13:17:51;23.20;30.80
64549;DHT22;49838;51.798;10.954;2022-09-27T13:20:40;23.30;30.50
64549;DHT22;49838;51.798;10.954;2022-09-27T13:26:41;23.20;30.50
64549;DHT22;49838;51.798;10.954;2022-09-27T13:34:45;22.60;30.30
64549;DHT22;49838;51.798;10.954;2022-09-27T13:46:15;21.90;30.90
64549;DHT22;49838;51.798;10.954;2022-09-27T13:48:49;21.80;31.00
64549;DHT22;49838;51.798;10.954;2022-09-27T13:51:26;21.80;31.10
64549;DHT22;49838;51.798;10.954;2022-09-27T13:54:02;21.90;31.10
64549;DHT22;49838;51.798;10.954;2022-09-27T13:59:18;22.00;31.00
64549;DHT22;49838;51.798;10.954;2022-09-27T14:01:55;21.80;30.90
64549;DHT22;49838;51.798;10.954;2022-09-27T14:04:32;21.80;31.10
64549;DHT22;49838;51.798;10.954;2022-09-27T14:07:03;21.80;31.00
64549;DHT22;49838;51.798;10.954;2022-09-27T14:09:31;21.70;31.00
64549;DHT22;49838;51.798;10.954;2022-09-27T14:12:02;21.50;31.00
64549;DHT22;49838;51.798;10.954;2022-09-27T14:14:35;21.40;31.00
64549;DHT22;49838;51.798;10.954;2022-09-27T14:17:06;21.20;31.10
64549;DHT22;49838;51.798;10.954;2022-09-27T14:19:37;21.10;31.20
64549;DHT22;49838;51.798;10.954;2022-09-27T14:22:10;21.00;31.20
64549;DHT22;49838;51.798;10.954;2022-09-27T14:24:45;21.00;31.30
64549;DHT22;49838;51.798;10.954;2022-09-27T14:27:15;20.90;31.30
64549;DHT22;49838;51.798;10.954;2022-09-27T14:29:45;20.80;31.20
64549;DHT22;49838;51.798;10.954;2022-09-27T14:32:16;20.70;31.30
64549;DHT22;49838;51.798;10.954;2022-09-27T14:34:45;20.70;31.40
64549;DHT22;49838;51.798;10.954;2022-09-27T14:37:17;20.60;31.40
64549;DHT22;49838;51.798;10.954;2022-09-27T14:39:52;20.60;31.50
64549;DHT22;49838;51.798;10.954;2022-09-27T14:42:22;20.50;31.40
64549;DHT22;49838;51.798;10.954;2022-09-27T14:44:51;20.50;31.50
64549;DHT22;49838;51.798;10.954;2022-09-27T14:47:21;20.50;31.50
64549;DHT22;49838;51.798;10.954;2022-09-27T14:49:50;20.50;31.60
64549;DHT22;49838;51.798;10.954;2022-09-27T14:52:20;20.50;31.60
64549;DHT22;49838;51.798;10.954;2022-09-27T14:54:56;20.50;31.70
64549;DHT22;49838;51.798;10.954;2022-09-27T14:57:25;20.50;31.60
64549;DHT22;49838;51.798;10.954;2022-09-27T14:59:54;20.50;31.60
64549;DHT22;49838;51.798;10.954;2022-09-27T15:02:25;20.50;31.70
64549;DHT22;49838;51.798;10.954;2022-09-27T15:04:53;20.40;31.60
64549;DHT22;49838;51.798;10.954;2022-09-27T15:07:21;20.40;31.70
64549;DHT22;49838;51.798;10.954;2022-09-27T15:09:49;20.30;31.70
64549;DHT22;49838;51.798;10.954;2022-09-27T15:12:20;20.30;31.80
64549;DHT22;49838;51.798;10.954;2022-09-27T15:14:52;20.30;31.80
64549;DHT22;49838;51.798;10.954;2022-09-27T15:17:23;20.30;31.90
64549;DHT22;49838;51.798;10.954;2022-09-27T15:19:59;20.20;31.80
64549;DHT22;49838;51.798;10.954;2022-09-27T15:22:31;20.10;31.80
64549;DHT22;49838;51.798;10.954;2022-09-27T15:25:06;20.10;31.90
64549;DHT22;49838;51.798;10.954;2022-09-27T15:27:45;20.10;31.90
64549;DHT22;49838;51.798;10.954;2022-09-27T15:30:15;19.90;31.90
64549;DHT22;49838;51.798;10.954;2022-09-27T15:32:48;19.90;32.00
64549;DHT22;49838;51.798;10.954;2022-09-27T15:35:21;19.80;32.00
64549;DHT22;49838;51.798;10.954;2022-09-27T15:37:51;19.80;32.00
64549;DHT22;49838;51.798;10.954;2022-09-27T15:43:39;19.70;32.00
64549;DHT22;49838;51.798;10.954;2022-09-27T15:49:26;19.50;32.20
64549;DHT22;49838;51.798;10.954;2022-09-27T15:52:00;19.40;32.20
64549;DHT22;49838;51.798;10.954;2022-09-27T15:54:30;19.30;32.20
64549;DHT22;49838;51.798;10.954;2022-09-27T15:57:01;19.20;32.20
64549;DHT22;49838;51.798;10.954;2022-09-27T15:59:31;19.10;32.40
64549;DHT22;49838;51.798;10.954;2022-09-27T16:02:00;19.00;32.30
64549;DHT22;49838;51.798;10.954;2022-09-27T16:04:31;19.00;32.30
64549;DHT22;49838;51.798;10.954;2022-09-27T16:07:00;19.00;32.50
64549;DHT22;49838;51.798;10.954;2022-09-27T16:09:30;19.00;32.40
64549;DHT22;49838;51.798;10.954;2022-09-27T16:11:58;18.90;32.40
64549;DHT22;49838;51.798;10.954;2022-09-27T16:14:25;18.90;32.60
64549;DHT22;49838;51.798;10.954;2022-09-27T16:16:53;18.80;32.40
64549;DHT22;49838;51.798;10.954;2022-09-27T16:19:22;18.70;32.30